sensor_id;sensor_type;location;lat;lon;timestamp;P1;durP1;ratioP1;P2;durP2;ratioP2
48795;SDS011;34607;48.520;-1.330;2023-02-28T08:08:04;25.33;;;18.83;;
48795;SDS011;34607;48.520;-1.330;2023-02-28T08:10:31;31.67;;;22.20;;
48795;SDS011;34607;48.520;-1.330;2023-02-28T08:12:58;29.63;;;21.15;;
48795;SDS011;34607;48.520;-1.330;2023-02-28T08:15:25;25.23;;;20.88;;
48795;SDS011;34607;48.520;-1.330;2023-02-28T08:17:53;25.25;;;18.50;;
48795;SDS011;34607;48.520;-1.330;2023-02-28T08:20:21;22.83;;;19.27;;
48795;SDS011;34607;48.520;-1.330;2023-02-28T08:22:48;24.52;;;19.10;;
48795;SDS011;34607;48.520;-1.330;2023-02-28T08:25:17;27.58;;;18.50;;
48795;SDS011;34607;48.520;-1.330;2023-02-28T08:27:44;25.25;;;18.33;;
48795;SDS011;34607;48.520;-1.330;2023-02-28T08:30:12;23.85;;;18.23;;
48795;SDS011;34607;48.520;-1.330;2023-02-28T08:32:40;21.20;;;17.75;;
48795;SDS011;34607;48.520;-1.330;2023-02-28T08:35:08;23.55;;;17.73;;
48795;SDS011;34607;48.520;-1.330;2023-02-28T08:37:35;23.73;;;18.25;;
48795;SDS011;34607;48.520;-1.330;2023-02-28T08:40:03;26.75;;;19.08;;
48795;SDS011;34607;48.520;-1.330;2023-02-28T08:42:33;23.27;;;18.33;;
48795;SDS011;34607;48.520;-1.330;2023-02-28T08:45:00;24.75;;;18.63;;
48795;SDS011;34607;48.520;-1.330;2023-02-28T08:47:27;20.40;;;16.77;;
48795;SDS011;34607;48.520;-1.330;2023-02-28T08:49:54;21.45;;;16.42;;
48795;SDS011;34607;48.520;-1.330;2023-02-28T08:52:21;20.98;;;17.15;;
48795;SDS011;34607;48.520;-1.330;2023-02-28T08:54:48;21.38;;;17.42;;
48795;SDS011;34607;48.520;-1.330;2023-02-28T08:57:15;22.10;;;16.83;;
48795;SDS011;34607;48.520;-1.330;2023-02-28T08:59:44;21.70;;;17.25;;
48795;SDS011;34607;48.520;-1.330;2023-02-28T09:02:12;19.60;;;16.95;;
48795;SDS011;34607;48.520;-1.330;2023-02-28T09:04:40;19.90;;;16.25;;
48795;SDS011;34607;48.520;-1.330;2023-02-28T09:07:07;19.98;;;16.15;;
48795;SDS011;34607;48.520;-1.330;2023-02-28T09:09:34;18.02;;;15.27;;
48795;SDS011;34607;48.520;-1.330;2023-02-28T09:12:01;19.17;;;15.43;;
48795;SDS011;34607;48.520;-1.330;2023-02-28T09:14:29;18.15;;;14.88;;
48795;SDS011;34607;48.520;-1.330;2023-02-28T09:16:57;16.25;;;14.55;;
48795;SDS011;34607;48.520;-1.330;2023-02-28T09:19:24;17.65;;;14.43;;
48795;SDS011;34607;48.520;-1.330;2023-02-28T09:21:51;17.17;;;13.55;;
48795;SDS011;34607;48.520;-1.330;2023-02-28T09:24:19;15.57;;;13.77;;
48795;SDS011;34607;48.520;-1.330;2023-02-28T09:26:46;17.10;;;12.55;;
48795;SDS011;34607;48.520;-1.330;2023-02-28T09:29:13;13.32;;;11.45;;
48795;SDS011;34607;48.520;-1.330;2023-02-28T09:31:41;16.20;;;12.43;;
48795;SDS011;34607;48.520;-1.330;2023-02-28T09:34:10;14.88;;;11.40;;
48795;SDS011;34607;48.520;-1.330;2023-02-28T09:36:37;17.15;;;12.10;;
48795;SDS011;34607;48.520;-1.330;2023-02-28T09:39:04;11.43;;;9.82;;
48795;SDS011;34607;48.520;-1.330;2023-02-28T09:41:36;13.25;;;10.40;;
48795;SDS011;34607;48.520;-1.330;2023-02-28T09:44:13;13.68;;;10.13;;
48795;SDS011;34607;48.520;-1.330;2023-02-28T09:46:48;12.85;;;10.10;;
48795;SDS011;34607;48.520;-1.330;2023-02-28T09:49:23;13.00;;;10.25;;
48795;SDS011;34607;48.520;-1.330;2023-02-28T09:51:54;12.32;;;9.52;;
48795;SDS011;34607;48.520;-1.330;2023-02-28T09:54:27;12.60;;;9.73;;
48795;SDS011;34607;48.520;-1.330;2023-02-28T09:56:57;10.07;;;9.05;;
48795;SDS011;34607;48.520;-1.330;2023-02-28T09:59:31;9.80;;;7.45;;
48795;SDS011;34607;48.520;-1.330;2023-02-28T10:02:21;9.95;;;7.93;;
48795;SDS011;34607;48.520;-1.330;2023-02-28T10:05:06;10.95;;;8.20;;
48795;SDS011;34607;48.520;-1.330;2023-02-28T10:10:16;12.98;;;9.00;;
48795;SDS011;34607;48.520;-1.330;2023-02-28T10:12:48;11.18;;;6.95;;
48795;SDS011;34607;48.520;-1.330;2023-02-28T10:15:19;8.52;;;6.45;;
48795;SDS011;34607;48.520;-1.330;2023-02-28T10:17:51;8.30;;;5.47;;
48795;SDS011;34607;48.520;-1.330;2023-02-28T10:20:24;7.60;;;6.07;;
48795;SDS011;34607;48.520;-1.330;2023-02-28T10:23:02;6.60;;;5.72;;
48795;SDS011;34607;48.520;-1.330;2023-02-28T10:25:37;9.07;;;7.18;;
48795;SDS011;34607;48.520;-1.330;2023-02-28T10:28:08;6.95;;;6.05;;
48795;SDS011;34607;48.520;-1.330;2023-02-28T10:30:39;7.10;;;6.38;;
48795;SDS011;34607;48.520;-1.330;2023-02-28T10:33:15;6.68;;;6.07;;
48795;SDS011;34607;48.520;-1.330;2023-02-28T10:35:47;7.50;;;5.95;;
48795;SDS011;34607;48.520;-1.330;2023-02-28T10:38:16;8.50;;;5.72;;
48795;SDS011;34607;48.520;-1.330;2023-02-28T10:40:44;6.57;;;5.13;;
48795;SDS011;34607;48.520;-1.330;2023-02-28T10:43:18;5.50;;;4.85;;
48795;SDS011;34607;48.520;-1.330;2023-02-28T10:45:55;6.07;;;5.05;;
48795;SDS011;34607;48.520;-1.330;2023-02-28T10:48:36;7.22;;;6.38;;
48795;SDS011;34607;48.520;-1.330;2023-02-28T10:51:07;7.78;;;6.10;;
48795;SDS011;34607;48.520;-1.330;2023-02-28T10:53:37;7.57;;;6.05;;
48795;SDS011;34607;48.520;-1.330;2023-02-28T10:56:15;12.40;;;7.90;;
48795;SDS011;34607;48.520;-1.330;2023-02-28T10:58:48;6.53;;;5.93;;
48795;SDS011;34607;48.520;-1.330;2023-02-28T11:03:46;8.45;;;5.38;;
48795;SDS011;34607;48.520;-1.330;2023-02-28T11:06:17;7.60;;;4.57;;
48795;SDS011;34607;48.520;-1.330;2023-02-28T11:08:47;7.15;;;4.50;;
48795;SDS011;34607;48.520;-1.330;2023-02-28T11:11:16;6.13;;;4.38;;
48795;SDS011;34607;48.520;-1.330;2023-02-28T11:13:45;5.97;;;4.50;;
48795;SDS011;34607;48.520;-1.330;2023-02-28T11:16:17;6.53;;;4.28;;
48795;SDS011;34607;48.520;-1.330;2023-02-28T11:18:46;8.27;;;4.63;;
48795;SDS011;34607;48.520;-1.330;2023-02-28T11:21:18;5.30;;;4.53;;
48795;SDS011;34607;48.520;-1.330;2023-02-28T11:23:49;6.60;;;3.58;;
48795;SDS011;34607;48.520;-1.330;2023-02-28T11:29:03;4.33;;;3.90;;
48795;SDS011;34607;48.520;-1.330;2023-02-28T11:31:37;4.32;;;3.90;;
48795;SDS011;34607;48.520;-1.330;2023-02-28T11:36:52;5.30;;;4.10;;
48795;SDS011;34607;48.520;-1.330;2023-02-28T11:39:21;5.13;;;3.38;;
48795;SDS011;34607;48.520;-1.330;2023-02-28T11:41:57;4.32;;;3.92;;
48795;SDS011;34607;48.520;-1.330;2023-02-28T11:44:39;4.70;;;3.53;;
48795;SDS011;34607;48.520;-1.330;2023-02-28T11:47:23;5.97;;;3.95;;
48795;SDS011;34607;48.520;-1.330;2023-02-28T11:50:04;4.47;;;3.90;;
48795;SDS011;34607;48.520;-1.330;2023-02-28T11:52:45;7.32;;;4.05;;
48795;SDS011;34607;48.520;-1.330;2023-02-28T11:55:19;3.97;;;3.58;;
48795;SDS011;34607;48.520;-1.330;2023-02-28T11:58:04;5.20;;;3.95;;
48795;SDS011;34607;48.520;-1.330;2023-02-28T12:00:50;5.53;;;3.83;;
48795;SDS011;34607;48.520;-1.330;2023-02-28T12:03:29;6.60;;;4.45;;
48795;SDS011;34607;48.520;-1.330;2023-02-28T12:06:10;5.07;;;4.18;;
48795;SDS011;34607;48.520;-1.330;2023-02-28T12:08:49;4.38;;;3.80;;
48795;SDS011;34607;48.520;-1.330;2023-02-28T12:11:28;6.63;;;4.50;;
48795;SDS011;34607;48.520;-1.330;2023-02-28T12:14:12;4.28;;;3.80;;
48795;SDS011;34607;48.520;-1.330;2023-02-28T12:16:55;6.18;;;4.18;;
48795;SDS011;34607;48.520;-1.330;2023-02-28T12:19:29;7.72;;;4.38;;
48795;SDS011;34607;48.520;-1.330;2023-02-28T12:22:11;4.82;;;4.25;;
48795;SDS011;34607;48.520;-1.330;2023-02-28T12:24:58;5.43;;;3.92;;
48795;SDS011;34607;48.520;-1.330;2023-02-28T12:27:44;6.00;;;3.85;;
48795;SDS011;34607;48.520;-1.330;2023-02-28T12:30:16;4.97;;;3.88;;
48795;SDS011;34607;48.520;-1.330;2023-02-28T12:32:46;4.10;;;3.70;;
48795;SDS011;34607;48.520;-1.330;2023-02-28T12:35:19;5.88;;;3.60;;
48795;SDS011;34607;48.520;-1.330;2023-02-28T12:37:52;5.10;;;4.17;;
48795;SDS011;34607;48.520;-1.330;2023-02-28T12:40:28;5.20;;;4.03;;
48795;SDS011;34607;48.520;-1.330;2023-02-28T12:43:07;6.22;;;4.75;;
48795;SDS011;34607;48.520;-1.330;2023-02-28T12:45:39;6.90;;;6.30;;
48795;SDS011;34607;48.520;-1.330;2023-02-28T12:48:10;9.18;;;5.82;;
48795;SDS011;34607;48.520;-1.330;2023-02-28T12:50:41;7.32;;;5.22;;
48795;SDS011;34607;48.520;-1.330;2023-02-28T12:53:09;7.80;;;5.70;;
48795;SDS011;34607;48.520;-1.330;2023-02-28T12:55:48;7.38;;;6.60;;
48795;SDS011;34607;48.520;-1.330;2023-02-28T12:58:24;8.73;;;6.38;;
48795;SDS011;34607;48.520;-1.330;2023-02-28T13:01:08;6.00;;;5.00;;
48795;SDS011;34607;48.520;-1.330;2023-02-28T13:04:16;5.90;;;4.53;;
48795;SDS011;34607;48.520;-1.330;2023-02-28T13:07:19;8.57;;;4.85;;
48795;SDS011;34607;48.520;-1.330;2023-02-28T13:10:12;7.72;;;4.55;;
48795;SDS011;34607;48.520;-1.330;2023-02-28T13:12:48;5.28;;;4.78;;
48795;SDS011;34607;48.520;-1.330;2023-02-28T13:15:18;6.38;;;5.78;;
48795;SDS011;34607;48.520;-1.330;2023-02-28T13:17:50;7.05;;;4.93;;
48795;SDS011;34607;48.520;-1.330;2023-02-28T13:20:19;5.75;;;4.43;;
48795;SDS011;34607;48.520;-1.330;2023-02-28T13:22:48;6.15;;;4.35;;
48795;SDS011;34607;48.520;-1.330;2023-02-28T13:31:34;6.32;;;4.82;;
48795;SDS011;34607;48.520;-1.330;2023-02-28T13:34:40;11.75;;;5.25;;
48795;SDS011;34607;48.520;-1.330;2023-02-28T13:40:26;6.00;;;5.38;;
48795;SDS011;34607;48.520;-1.330;2023-02-28T13:43:02;7.70;;;6.50;;
48795;SDS011;34607;48.520;-1.330;2023-02-28T13:45:30;7.40;;;5.75;;
48795;SDS011;34607;48.520;-1.330;2023-02-28T13:48:05;7.07;;;6.38;;
48795;SDS011;34607;48.520;-1.330;2023-02-28T13:50:43;8.43;;;6.18;;
48795;SDS011;34607;48.520;-1.330;2023-02-28T13:56:36;7.55;;;6.75;;
48795;SDS011;34607;48.520;-1.330;2023-02-28T13:59:16;7.55;;;6.82;;
48795;SDS011;34607;48.520;-1.330;2023-02-28T14:05:04;11.45;;;7.65;;
48795;SDS011;34607;48.520;-1.330;2023-02-28T14:07:33;11.15;;;7.60;;
48795;SDS011;34607;48.520;-1.330;2023-02-28T14:10:16;9.15;;;7.25;;
48795;SDS011;34607;48.520;-1.330;2023-02-28T14:12:57;9.68;;;7.47;;
48795;SDS011;34607;48.520;-1.330;2023-02-28T14:18:26;11.27;;;8.82;;
48795;SDS011;34607;48.520;-1.330;2023-02-28T14:21:03;10.30;;;8.40;;
48795;SDS011;34607;48.520;-1.330;2023-02-28T14:23:46;9.05;;;7.90;;
48795;SDS011;34607;48.520;-1.330;2023-02-28T14:26:30;9.68;;;8.68;;
48795;SDS011;34607;48.520;-1.330;2023-02-28T14:29:12;10.75;;;8.90;;
48795;SDS011;34607;48.520;-1.330;2023-02-28T14:31:58;9.57;;;8.65;;
48795;SDS011;34607;48.520;-1.330;2023-02-28T14:34:37;9.10;;;8.20;;
48795;SDS011;34607;48.520;-1.330;2023-02-28T14:37:13;10.35;;;9.38;;
48795;SDS011;34607;48.520;-1.330;2023-02-28T14:39:44;10.55;;;9.55;;
48795;SDS011;34607;48.520;-1.330;2023-02-28T14:42:27;12.15;;;10.93;;
48795;SDS011;34607;48.520;-1.330;2023-02-28T14:44:56;11.13;;;10.00;;
48795;SDS011;34607;48.520;-1.330;2023-02-28T14:47:25;12.10;;;10.15;;
48795;SDS011;34607;48.520;-1.330;2023-02-28T14:49:55;16.17;;;12.02;;
48795;SDS011;34607;48.520;-1.330;2023-02-28T14:52:25;14.75;;;11.70;;
48795;SDS011;34607;48.520;-1.330;2023-02-28T14:54:55;13.43;;;12.02;;
48795;SDS011;34607;48.520;-1.330;2023-02-28T14:57:24;13.25;;;11.60;;
48795;SDS011;34607;48.520;-1.330;2023-02-28T15:00:00;11.98;;;10.55;;
48795;SDS011;34607;48.520;-1.330;2023-02-28T15:02:30;16.27;;;11.90;;
48795;SDS011;34607;48.520;-1.330;2023-02-28T15:05:01;17.77;;;13.88;;
48795;SDS011;34607;48.520;-1.330;2023-02-28T15:08:00;17.08;;;15.02;;
48795;SDS011;34607;48.520;-1.330;2023-02-28T15:10:28;14.70;;;13.23;;
48795;SDS011;34607;48.520;-1.330;2023-02-28T15:12:57;17.45;;;15.35;;
48795;SDS011;34607;48.520;-1.330;2023-02-28T15:15:27;16.50;;;14.75;;
48795;SDS011;34607;48.520;-1.330;2023-02-28T15:18:06;18.27;;;15.20;;
48795;SDS011;34607;48.520;-1.330;2023-02-28T15:20:38;16.77;;;14.40;;
48795;SDS011;34607;48.520;-1.330;2023-02-28T15:23:10;16.83;;;14.82;;
48795;SDS011;34607;48.520;-1.330;2023-02-28T15:25:39;18.23;;;16.38;;
48795;SDS011;34607;48.520;-1.330;2023-02-28T15:28:09;21.40;;;16.35;;
48795;SDS011;34607;48.520;-1.330;2023-02-28T15:30:49;20.67;;;17.98;;
48795;SDS011;34607;48.520;-1.330;2023-02-28T15:33:19;18.63;;;15.68;;
48795;SDS011;34607;48.520;-1.330;2023-02-28T15:35:47;18.67;;;16.65;;
48795;SDS011;34607;48.520;-1.330;2023-02-28T15:38:18;21.02;;;17.25;;
48795;SDS011;34607;48.520;-1.330;2023-02-28T15:40:50;20.42;;;17.73;;
48795;SDS011;34607;48.520;-1.330;2023-02-28T15:43:23;21.05;;;16.95;;
48795;SDS011;34607;48.520;-1.330;2023-02-28T15:45:53;21.00;;;18.25;;
48795;SDS011;34607;48.520;-1.330;2023-02-28T15:48:24;20.88;;;17.70;;
48795;SDS011;34607;48.520;-1.330;2023-02-28T15:50:55;22.42;;;17.70;;
48795;SDS011;34607;48.520;-1.330;2023-02-28T15:53:26;25.27;;;20.38;;
48795;SDS011;34607;48.520;-1.330;2023-02-28T15:56:00;20.05;;;18.02;;
48795;SDS011;34607;48.520;-1.330;2023-02-28T15:58:29;20.17;;;17.42;;
48795;SDS011;34607;48.520;-1.330;2023-02-28T16:03:48;19.17;;;16.83;;
48795;SDS011;34607;48.520;-1.330;2023-02-28T16:06:32;22.73;;;17.70;;
48795;SDS011;34607;48.520;-1.330;2023-02-28T16:09:02;24.42;;;18.23;;
48795;SDS011;34607;48.520;-1.330;2023-02-28T16:11:33;26.50;;;23.65;;
48795;SDS011;34607;48.520;-1.330;2023-02-28T16:14:02;22.25;;;18.10;;
48795;SDS011;34607;48.520;-1.330;2023-02-28T16:16:29;26.83;;;22.50;;
48795;SDS011;34607;48.520;-1.330;2023-02-28T16:18:58;26.48;;;22.00;;
48795;SDS011;34607;48.520;-1.330;2023-02-28T16:21:25;31.27;;;25.52;;
48795;SDS011;34607;48.520;-1.330;2023-02-28T16:23:52;32.80;;;27.63;;
48795;SDS011;34607;48.520;-1.330;2023-02-28T16:26:21;29.55;;;26.00;;
48795;SDS011;34607;48.520;-1.330;2023-02-28T16:28:50;31.42;;;25.95;;
48795;SDS011;34607;48.520;-1.330;2023-02-28T16:31:18;29.55;;;24.27;;
48795;SDS011;34607;48.520;-1.330;2023-02-28T16:33:46;26.80;;;23.25;;
48795;SDS011;34607;48.520;-1.330;2023-02-28T16:36:14;30.75;;;24.92;;
48795;SDS011;34607;48.520;-1.330;2023-02-28T16:38:43;30.30;;;26.17;;
48795;SDS011;34607;48.520;-1.330;2023-02-28T16:41:12;27.80;;;24.80;;
48795;SDS011;34607;48.520;-1.330;2023-02-28T16:43:46;25.98;;;22.40;;
48795;SDS011;34607;48.520;-1.330;2023-02-28T16:46:14;39.50;;;31.02;;
48795;SDS011;34607;48.520;-1.330;2023-02-28T16:48:43;65.53;;;45.65;;
48795;SDS011;34607;48.520;-1.330;2023-02-28T16:51:13;56.17;;;39.83;;
48795;SDS011;34607;48.520;-1.330;2023-02-28T16:53:42;31.48;;;28.15;;
48795;SDS011;34607;48.520;-1.330;2023-02-28T16:56:13;31.95;;;27.60;;
48795;SDS011;34607;48.520;-1.330;2023-02-28T16:58:42;32.83;;;27.02;;
48795;SDS011;34607;48.520;-1.330;2023-02-28T17:01:11;34.08;;;27.67;;
48795;SDS011;34607;48.520;-1.330;2023-02-28T17:03:38;48.60;;;34.42;;
48795;SDS011;34607;48.520;-1.330;2023-02-28T17:06:06;34.90;;;25.73;;
48795;SDS011;34607;48.520;-1.330;2023-02-28T17:08:41;36.67;;;25.90;;
48795;SDS011;34607;48.520;-1.330;2023-02-28T17:11:08;32.03;;;24.95;;
48795;SDS011;34607;48.520;-1.330;2023-02-28T17:13:35;35.35;;;27.02;;
48795;SDS011;34607;48.520;-1.330;2023-02-28T17:16:03;35.88;;;26.13;;
48795;SDS011;34607;48.520;-1.330;2023-02-28T17:18:32;32.50;;;24.45;;
48795;SDS011;34607;48.520;-1.330;2023-02-28T17:21:00;40.95;;;26.58;;
48795;SDS011;34607;48.520;-1.330;2023-02-28T17:23:27;32.17;;;24.40;;
48795;SDS011;34607;48.520;-1.330;2023-02-28T17:25:54;26.13;;;20.58;;
48795;SDS011;34607;48.520;-1.330;2023-02-28T17:28:21;33.95;;;25.25;;
48795;SDS011;34607;48.520;-1.330;2023-02-28T17:30:48;25.63;;;18.98;;
48795;SDS011;34607;48.520;-1.330;2023-02-28T17:33:15;26.02;;;20.38;;
48795;SDS011;34607;48.520;-1.330;2023-02-28T17:35:44;29.45;;;23.45;;
48795;SDS011;34607;48.520;-1.330;2023-02-28T17:38:14;23.33;;;18.35;;
48795;SDS011;34607;48.520;-1.330;2023-02-28T17:40:43;21.95;;;19.15;;
48795;SDS011;34607;48.520;-1.330;2023-02-28T17:43:10;25.00;;;19.80;;
48795;SDS011;34607;48.520;-1.330;2023-02-28T17:45:37;21.77;;;19.48;;
48795;SDS011;34607;48.520;-1.330;2023-02-28T17:48:05;23.92;;;21.48;;
48795;SDS011;34607;48.520;-1.330;2023-02-28T17:50:32;20.85;;;18.85;;
48795;SDS011;34607;48.520;-1.330;2023-02-28T17:53:01;24.95;;;21.73;;
48795;SDS011;34607;48.520;-1.330;2023-02-28T17:55:28;28.67;;;22.63;;
48795;SDS011;34607;48.520;-1.330;2023-02-28T17:57:55;27.25;;;22.20;;
48795;SDS011;34607;48.520;-1.330;2023-02-28T18:00:22;23.92;;;20.10;;
48795;SDS011;34607;48.520;-1.330;2023-02-28T18:02:50;18.13;;;16.27;;
48795;SDS011;34607;48.520;-1.330;2023-02-28T18:05:17;19.17;;;15.45;;
48795;SDS011;34607;48.520;-1.330;2023-02-28T18:07:44;20.88;;;15.25;;
48795;SDS011;34607;48.520;-1.330;2023-02-28T18:10:14;23.83;;;18.48;;
48795;SDS011;34607;48.520;-1.330;2023-02-28T18:12:44;22.67;;;18.05;;
48795;SDS011;34607;48.520;-1.330;2023-02-28T18:15:12;20.48;;;17.42;;
48795;SDS011;34607;48.520;-1.330;2023-02-28T18:17:40;23.05;;;17.13;;
48795;SDS011;34607;48.520;-1.330;2023-02-28T18:20:07;22.60;;;17.15;;
48795;SDS011;34607;48.520;-1.330;2023-02-28T18:22:36;62.70;;;46.45;;
48795;SDS011;34607;48.520;-1.330;2023-02-28T18:25:03;27.23;;;22.13;;
48795;SDS011;34607;48.520;-1.330;2023-02-28T18:27:33;11.95;;;10.02;;
48795;SDS011;34607;48.520;-1.330;2023-02-28T18:30:00;8.02;;;6.75;;
48795;SDS011;34607;48.520;-1.330;2023-02-28T18:32:29;9.65;;;7.90;;
48795;SDS011;34607;48.520;-1.330;2023-02-28T18:34:56;9.65;;;7.85;;
48795;SDS011;34607;48.520;-1.330;2023-02-28T18:37:23;7.60;;;6.88;;
48795;SDS011;34607;48.520;-1.330;2023-02-28T18:39:51;8.40;;;7.60;;
48795;SDS011;34607;48.520;-1.330;2023-02-28T18:42:18;8.73;;;7.82;;
48795;SDS011;34607;48.520;-1.330;2023-02-28T18:44:47;6.82;;;6.22;;
48795;SDS011;34607;48.520;-1.330;2023-02-28T18:47:14;8.80;;;8.00;;
48795;SDS011;34607;48.520;-1.330;2023-02-28T18:49:43;10.48;;;9.15;;
48795;SDS011;34607;48.520;-1.330;2023-02-28T18:52:10;7.97;;;7.28;;
48795;SDS011;34607;48.520;-1.330;2023-02-28T18:54:37;9.00;;;8.20;;
48795;SDS011;34607;48.520;-1.330;2023-02-28T18:57:04;10.02;;;8.43;;
48795;SDS011;34607;48.520;-1.330;2023-02-28T18:59:31;9.10;;;8.05;;
48795;SDS011;34607;48.520;-1.330;2023-02-28T19:01:59;8.93;;;8.02;;
48795;SDS011;34607;48.520;-1.330;2023-02-28T19:04:26;11.07;;;9.60;;
48795;SDS011;34607;48.520;-1.330;2023-02-28T19:06:53;10.73;;;9.05;;
48795;SDS011;34607;48.520;-1.330;2023-02-28T19:09:20;10.18;;;9.18;;
48795;SDS011;34607;48.520;-1.330;2023-02-28T19:11:47;8.93;;;8.02;;
48795;SDS011;34607;48.520;-1.330;2023-02-28T19:14:14;9.40;;;8.52;;
48795;SDS011;34607;48.520;-1.330;2023-02-28T19:16:41;9.60;;;8.70;;
48795;SDS011;34607;48.520;-1.330;2023-02-28T19:19:10;9.43;;;8.38;;
48795;SDS011;34607;48.520;-1.330;2023-02-28T19:21:38;9.23;;;8.32;;
48795;SDS011;34607;48.520;-1.330;2023-02-28T19:24:05;5.85;;;5.35;;
48795;SDS011;34607;48.520;-1.330;2023-02-28T19:26:32;6.85;;;5.90;;
48795;SDS011;34607;48.520;-1.330;2023-02-28T19:29:00;5.70;;;5.10;;
48795;SDS011;34607;48.520;-1.330;2023-02-28T19:31:28;4.90;;;4.50;;
48795;SDS011;34607;48.520;-1.330;2023-02-28T19:33:55;3.92;;;3.63;;
48795;SDS011;34607;48.520;-1.330;2023-02-28T19:36:24;3.58;;;3.28;;
48795;SDS011;34607;48.520;-1.330;2023-02-28T19:38:52;3.72;;;3.42;;
48795;SDS011;34607;48.520;-1.330;2023-02-28T19:41:20;3.78;;;3.47;;
48795;SDS011;34607;48.520;-1.330;2023-02-28T19:43:47;4.80;;;4.35;;
48795;SDS011;34607;48.520;-1.330;2023-02-28T19:46:15;4.35;;;3.95;;
48795;SDS011;34607;48.520;-1.330;2023-02-28T19:48:43;4.30;;;3.90;;
48795;SDS011;34607;48.520;-1.330;2023-02-28T19:51:11;4.93;;;4.53;;
48795;SDS011;34607;48.520;-1.330;2023-02-28T19:53:40;5.70;;;5.20;;
48795;SDS011;34607;48.520;-1.330;2023-02-28T19:56:09;5.07;;;4.60;;
48795;SDS011;34607;48.520;-1.330;2023-02-28T19:58:37;5.65;;;5.15;;
48795;SDS011;34607;48.520;-1.330;2023-02-28T20:01:08;5.57;;;5.03;;
48795;SDS011;34607;48.520;-1.330;2023-02-28T20:03:36;5.00;;;4.55;;
48795;SDS011;34607;48.520;-1.330;2023-02-28T20:06:04;6.55;;;5.95;;
48795;SDS011;34607;48.520;-1.330;2023-02-28T20:08:34;5.53;;;4.95;;
48795;SDS011;34607;48.520;-1.330;2023-02-28T20:11:03;6.65;;;5.70;;
48795;SDS011;34607;48.520;-1.330;2023-02-28T20:13:32;6.75;;;6.10;;
48795;SDS011;34607;48.520;-1.330;2023-02-28T20:15:59;8.05;;;7.15;;
48795;SDS011;34607;48.520;-1.330;2023-02-28T20:18:26;7.90;;;7.10;;
48795;SDS011;34607;48.520;-1.330;2023-02-28T20:20:53;8.85;;;7.95;;
48795;SDS011;34607;48.520;-1.330;2023-02-28T20:23:21;8.05;;;7.22;;
48795;SDS011;34607;48.520;-1.330;2023-02-28T20:25:48;8.32;;;7.53;;
48795;SDS011;34607;48.520;-1.330;2023-02-28T20:28:17;7.80;;;7.00;;
48795;SDS011;34607;48.520;-1.330;2023-02-28T20:30:45;8.65;;;7.80;;
48795;SDS011;34607;48.520;-1.330;2023-02-28T20:33:14;10.35;;;8.52;;
48795;SDS011;34607;48.520;-1.330;2023-02-28T20:35:41;8.90;;;8.00;;
48795;SDS011;34607;48.520;-1.330;2023-02-28T20:38:08;10.13;;;8.55;;
48795;SDS011;34607;48.520;-1.330;2023-02-28T20:40:35;10.10;;;9.10;;
48795;SDS011;34607;48.520;-1.330;2023-02-28T20:43:03;10.48;;;9.40;;
48795;SDS011;34607;48.520;-1.330;2023-02-28T20:45:31;11.55;;;10.45;;
48795;SDS011;34607;48.520;-1.330;2023-02-28T20:47:59;13.05;;;11.07;;
48795;SDS011;34607;48.520;-1.330;2023-02-28T20:50:26;13.35;;;11.95;;
48795;SDS011;34607;48.520;-1.330;2023-02-28T20:52:54;13.93;;;12.20;;
48795;SDS011;34607;48.520;-1.330;2023-02-28T20:55:21;14.80;;;13.25;;
48795;SDS011;34607;48.520;-1.330;2023-02-28T20:57:48;14.40;;;12.90;;
48795;SDS011;34607;48.520;-1.330;2023-02-28T21:00:15;16.90;;;14.15;;
48795;SDS011;34607;48.520;-1.330;2023-02-28T21:02:46;15.07;;;13.43;;
48795;SDS011;34607;48.520;-1.330;2023-02-28T21:05:13;15.25;;;13.70;;
48795;SDS011;34607;48.520;-1.330;2023-02-28T21:07:41;16.25;;;13.80;;
48795;SDS011;34607;48.520;-1.330;2023-02-28T21:10:08;16.27;;;14.35;;
48795;SDS011;34607;48.520;-1.330;2023-02-28T21:12:36;16.45;;;14.70;;
48795;SDS011;34607;48.520;-1.330;2023-02-28T21:15:04;16.23;;;14.52;;
48795;SDS011;34607;48.520;-1.330;2023-02-28T21:17:31;17.02;;;15.25;;
48795;SDS011;34607;48.520;-1.330;2023-02-28T21:20:00;18.10;;;15.63;;
48795;SDS011;34607;48.520;-1.330;2023-02-28T21:22:28;17.35;;;15.60;;
48795;SDS011;34607;48.520;-1.330;2023-02-28T21:24:55;18.38;;;16.40;;
48795;SDS011;34607;48.520;-1.330;2023-02-28T21:27:22;19.55;;;17.45;;
48795;SDS011;34607;48.520;-1.330;2023-02-28T21:29:49;19.65;;;15.88;;
48795;SDS011;34607;48.520;-1.330;2023-02-28T21:32:16;19.05;;;16.88;;
48795;SDS011;34607;48.520;-1.330;2023-02-28T21:34:43;19.65;;;17.33;;
48795;SDS011;34607;48.520;-1.330;2023-02-28T21:37:12;22.95;;;19.80;;
48795;SDS011;34607;48.520;-1.330;2023-02-28T21:39:39;23.88;;;19.70;;
48795;SDS011;34607;48.520;-1.330;2023-02-28T21:42:06;24.58;;;20.33;;
48795;SDS011;34607;48.520;-1.330;2023-02-28T21:44:34;25.85;;;21.20;;
48795;SDS011;34607;48.520;-1.330;2023-02-28T21:47:01;23.60;;;19.90;;
48795;SDS011;34607;48.520;-1.330;2023-02-28T21:49:28;25.40;;;21.90;;
48795;SDS011;34607;48.520;-1.330;2023-02-28T21:51:55;25.83;;;21.40;;
48795;SDS011;34607;48.520;-1.330;2023-02-28T21:54:24;23.45;;;20.58;;
48795;SDS011;34607;48.520;-1.330;2023-02-28T21:56:51;25.13;;;21.52;;
48795;SDS011;34607;48.520;-1.330;2023-02-28T21:59:18;27.65;;;22.98;;
48795;SDS011;34607;48.520;-1.330;2023-02-28T22:01:47;31.25;;;24.42;;
48795;SDS011;34607;48.520;-1.330;2023-02-28T22:04:16;28.23;;;24.50;;
48795;SDS011;34607;48.520;-1.330;2023-02-28T22:06:47;27.90;;;22.77;;
48795;SDS011;34607;48.520;-1.330;2023-02-28T22:09:16;29.08;;;24.10;;
48795;SDS011;34607;48.520;-1.330;2023-02-28T22:11:45;31.15;;;25.75;;
48795;SDS011;34607;48.520;-1.330;2023-02-28T22:14:12;33.75;;;27.25;;
48795;SDS011;34607;48.520;-1.330;2023-02-28T22:16:39;32.50;;;26.38;;
48795;SDS011;34607;48.520;-1.330;2023-02-28T22:19:07;34.03;;;26.48;;
48795;SDS011;34607;48.520;-1.330;2023-02-28T22:21:35;32.55;;;26.27;;
48795;SDS011;34607;48.520;-1.330;2023-02-28T22:24:06;30.25;;;24.25;;
48795;SDS011;34607;48.520;-1.330;2023-02-28T22:26:33;30.45;;;22.85;;
48795;SDS011;34607;48.520;-1.330;2023-02-28T22:29:02;30.15;;;23.77;;
48795;SDS011;34607;48.520;-1.330;2023-02-28T22:31:30;29.38;;;25.35;;
48795;SDS011;34607;48.520;-1.330;2023-02-28T22:33:59;29.20;;;23.73;;
48795;SDS011;34607;48.520;-1.330;2023-02-28T22:36:27;28.27;;;24.13;;
48795;SDS011;34607;48.520;-1.330;2023-02-28T22:38:55;30.98;;;24.65;;
48795;SDS011;34607;48.520;-1.330;2023-02-28T22:41:25;29.00;;;24.52;;
48795;SDS011;34607;48.520;-1.330;2023-02-28T22:43:53;27.00;;;24.13;;
48795;SDS011;34607;48.520;-1.330;2023-02-28T22:46:24;31.45;;;26.27;;
